Time;durP1;ratioP1;P1;durP2;ratioP2;P2;SDS_P1;SDS_P2;PMS_P1;PMS_P2;Temp;Humidity;BMP_temperature;BMP_pressure;BME280_temperature;BME280_humidity;BME280_pressure;Samples;Min_cycle;Max_cycle;Signal;HPM_P1;HPM_P2
2023/04/20 00:02:09;;;;;;;39.20;27.30;;;;;;;5.87;77.60;100671.03;129635;1281;114780;-71
2023/04/20 00:05:12;;;;;;;43.70;28.60;;;;;;;5.87;77.55;100670.48;129474;1263;115270;-71
2023/04/20 00:08:16;;;;;;;42.50;28.80;;;;;;;5.87;77.59;100669.60;129680;1261;114789;-66
2023/04/20 00:11:18;;;;;;;48.40;27.10;;;;;;;5.87;77.68;100670.85;129669;1275;114754;-71
2023/04/20 00:14:20;;;;;;;42.30;27.20;;;;;;;5.89;77.77;100666.55;129587;1281;114809;-70
2023/04/20 00:17:22;;;;;;;37.80;27.20;;;;;;;5.91;77.78;100674.98;129952;1263;115348;-70
2023/04/20 00:20:24;;;;;;;42.30;28.80;;;;;;;5.91;77.87;100676.95;129538;1265;128086;-68
2023/04/20 00:23:26;;;;;;;38.80;26.90;;;;;;;5.93;77.91;100682.05;129754;1262;114813;-65
2023/04/20 00:26:27;;;;;;;40.50;27.60;;;;;;;5.94;77.87;100683.10;129464;1262;114794;-71
2023/04/20 00:29:30;;;;;;;37.90;27.30;;;;;;;5.95;77.95;100680.22;129555;1273;114713;-69
2023/04/20 00:32:32;;;;;;;41.60;28.00;;;;;;;5.96;77.94;100680.73;129456;1282;115259;-70
2023/04/20 00:35:34;;;;;;;40.80;27.90;;;;;;;5.98;77.93;100683.17;129620;1277;115193;-69
2023/04/20 00:38:36;;;;;;;38.50;27.90;;;;;;;5.98;77.94;100682.29;129500;1280;114645;-69
2023/04/20 00:41:38;;;;;;;37.90;27.40;;;;;;;5.98;78.00;100679.80;129367;1264;114763;-70
2023/04/20 00:44:40;;;;;;;37.20;27.20;;;;;;;5.98;77.92;100672.71;129511;1272;114767;-68
2023/04/20 00:47:42;;;;;;;37.80;26.30;;;;;;;5.97;77.99;100669.00;129527;1264;114914;-70
2023/04/20 00:50:45;;;;;;;37.50;26.50;;;;;;;5.97;77.86;100662.09;129291;1267;114911;-67
2023/04/20 00:53:47;;;;;;;35.90;26.10;;;;;;;5.98;78.04;100661.90;129412;1277;114869;-69
2023/04/20 00:56:50;;;;;;;33.40;25.90;;;;;;;5.97;78.00;100667.77;129364;1261;114754;-69
2023/04/20 00:59:52;;;;;;;34.80;25.60;;;;;;;5.98;77.95;100672.18;129407;1264;114733;-66
2023/04/20 01:02:54;;;;;;;32.60;24.10;;;;;;;5.98;77.95;100674.48;129310;1265;129318;-67
2023/04/20 01:05:56;;;;;;;33.20;23.70;;;;;;;5.98;77.88;100674.84;129345;1264;114789;-66
2023/04/20 01:08:58;;;;;;;31.20;23.70;;;;;;;5.97;77.84;100667.23;129429;1263;114722;-65
2023/04/20 01:12:01;;;;;;;33.90;23.10;;;;;;;5.95;77.65;100668.35;129425;1282;114763;-69
2023/04/20 01:15:04;;;;;;;27.80;20.30;;;;;;;5.92;77.64;100663.98;129424;1263;114919;-69
2023/04/20 01:18:08;;;;;;;30.20;21.30;;;;;;;5.92;77.69;100666.30;129503;1264;114795;-70
2023/04/20 01:21:11;;;;;;;29.80;22.30;;;;;;;5.90;77.68;100660.65;129293;1259;215015;-69
2023/04/20 01:24:14;;;;;;;31.50;22.70;;;;;;;5.88;77.51;100657.34;129408;1264;115231;-70
2023/04/20 01:27:16;;;;;;;31.10;22.90;;;;;;;5.86;77.52;100657.23;129392;1263;114993;-70
2023/04/20 01:30:18;;;;;;;32.40;21.90;;;;;;;5.83;77.52;100657.30;129425;1277;114752;-68
2023/04/20 01:33:20;;;;;;;29.10;21.30;;;;;;;5.79;77.35;100653.66;129398;1275;114753;-69
2023/04/20 01:36:22;;;;;;;28.30;21.70;;;;;;;5.79;77.56;100653.48;129489;1264;114706;-69
2023/04/20 01:39:24;;;;;;;31.40;21.30;;;;;;;5.80;77.56;100656.83;129569;1259;114778;-69
2023/04/20 01:42:26;;;;;;;34.30;21.60;;;;;;;5.81;77.52;100656.63;129460;1259;128724;-70
2023/04/20 01:45:28;;;;;;;31.50;22.70;;;;;;;5.83;77.52;100657.30;129310;1271;115129;-69
2023/04/20 01:48:31;;;;;;;32.20;22.90;;;;;;;5.84;77.54;100647.70;129476;1262;115326;-69
2023/04/20 01:51:34;;;;;;;32.10;23.10;;;;;;;5.85;77.71;100648.05;129480;1265;114765;-69
2023/04/20 01:54:36;;;;;;;31.90;23.60;;;;;;;5.84;77.67;100641.48;129388;1263;114807;-69
2023/04/20 01:57:38;;;;;;;32.20;23.00;;;;;;;5.84;77.60;100644.53;129439;1264;114732;-69
2023/04/20 02:00:40;;;;;;;28.40;21.80;;;;;;;5.83;77.82;100650.38;129579;1259;114801;-67
2023/04/20 02:03:42;;;;;;;28.10;20.80;;;;;;;5.81;77.68;100651.15;129379;1275;128782;-68
2023/04/20 02:06:44;;;;;;;28.90;21.60;;;;;;;5.79;77.72;100644.27;129490;1261;114824;-69
2023/04/20 02:09:46;;;;;;;26.10;20.40;;;;;;;5.80;77.74;100646.02;129461;1261;115107;-69
2023/04/20 02:12:49;;;;;;;24.90;19.80;;;;;;;5.77;77.60;100637.76;129504;1272;114665;-69
2023/04/20 02:15:51;;;;;;;29.40;20.90;;;;;;;5.76;77.59;100639.02;129448;1261;114803;-67
2023/04/20 02:18:54;;;;;;;31.70;23.20;;;;;;;5.75;77.68;100642.41;129445;1272;114726;-69
2023/04/20 02:21:56;;;;;;;31.30;23.00;;;;;;;5.74;77.87;100639.96;129374;1281;114812;-69
2023/04/20 02:24:58;;;;;;;33.80;24.60;;;;;;;5.73;77.88;100637.67;129345;1261;128446;-69
2023/04/20 02:28:00;;;;;;;32.20;24.60;;;;;;;5.72;77.75;100635.22;129336;1259;114765;-69
2023/04/20 02:31:02;;;;;;;32.70;24.70;;;;;;;5.71;78.03;100626.55;129430;1264;114725;-68
2023/04/20 02:34:05;;;;;;;38.40;26.40;;;;;;;5.70;78.19;100633.50;129498;1261;114783;-68
2023/04/20 02:37:06;;;;;;;35.10;25.10;;;;;;;5.71;78.03;100631.37;129579;1261;114855;-67
2023/04/20 02:40:09;;;;;;;39.30;27.60;;;;;;;5.71;78.14;100631.18;129349;1263;115385;-67
2023/04/20 02:43:11;;;;;;;35.70;25.70;;;;;;;5.70;78.07;100626.77;129497;1263;114770;-68
2023/04/20 02:46:13;;;;;;;40.20;28.00;;;;;;;5.71;78.27;100619.67;129367;1263;128504;-68
2023/04/20 02:49:15;;;;;;;36.90;27.30;;;;;;;5.70;78.44;100611.90;129408;1262;114732;-66
2023/04/20 02:52:17;;;;;;;35.80;27.40;;;;;;;5.68;78.34;100603.95;129466;1262;114755;-66
2023/04/20 02:55:19;;;;;;;41.70;30.50;;;;;;;5.68;78.39;100607.70;129399;1263;114761;-69
2023/04/20 02:58:21;;;;;;;42.10;29.50;;;;;;;5.68;78.45;100610.70;129481;1261;114804;-65
2023/04/20 03:01:23;;;;;;;40.50;27.70;;;;;;;5.68;78.39;100619.02;129463;1262;115298;-66
2023/04/20 03:04:26;;;;;;;43.70;28.70;;;;;;;5.70;78.67;100624.11;129457;1281;114791;-68
2023/04/20 03:07:28;;;;;;;41.00;29.60;;;;;;;5.71;78.50;100630.29;129314;1258;114748;-69
2023/04/20 03:10:30;;;;;;;39.40;29.00;;;;;;;5.73;78.64;100635.54;129548;1262;114745;-68
2023/04/20 03:13:32;;;;;;;41.10;29.50;;;;;;;5.75;78.74;100632.85;129712;1281;114732;-66
2023/04/20 03:16:34;;;;;;;43.30;31.70;;;;;;;5.78;78.83;100629.41;129485;1260;114738;-66
2023/04/20 03:19:36;;;;;;;43.60;31.40;;;;;;;5.80;78.68;100632.38;129386;1259;114731;-70
2023/04/20 03:22:38;;;;;;;42.90;31.50;;;;;;;5.82;78.71;100633.39;129554;1263;114876;-66
2023/04/20 03:25:40;;;;;;;49.10;33.10;;;;;;;5.83;78.72;100629.80;129375;1261;115154;-69
2023/04/20 03:28:42;;;;;;;45.00;32.40;;;;;;;5.83;78.77;100620.77;129490;1259;114742;-67
2023/04/20 03:31:44;;;;;;;46.70;32.90;;;;;;;5.83;78.78;100626.98;129522;1257;114745;-67
2023/04/20 03:34:46;;;;;;;41.50;31.80;;;;;;;5.82;78.76;100631.60;129395;1261;115376;-65
2023/04/20 03:37:48;;;;;;;44.30;31.80;;;;;;;5.83;78.71;100632.13;129561;1259;114775;-69
2023/04/20 03:40:50;;;;;;;41.90;32.00;;;;;;;5.83;78.81;100625.75;129555;1261;115190;-66
2023/04/20 03:43:52;;;;;;;43.10;31.20;;;;;;;5.83;78.77;100621.84;129311;1262;114718;-67
2023/04/20 03:46:54;;;;;;;40.10;29.80;;;;;;;5.85;78.84;100625.88;129472;1259;115165;-68
2023/04/20 03:49:56;;;;;;;42.50;30.30;;;;;;;5.86;78.86;100627.09;129510;1259;114768;-67
2023/04/20 03:52:58;;;;;;;42.10;31.60;;;;;;;5.88;78.99;100631.64;129372;1262;128518;-67
2023/04/20 03:56:00;;;;;;;43.40;30.80;;;;;;;5.91;79.11;100639.90;129404;1261;114746;-68
2023/04/20 03:59:02;;;;;;;47.70;32.40;;;;;;;5.94;79.04;100641.60;129531;1261;114761;-66
2023/04/20 04:02:04;;;;;;;43.60;31.00;;;;;;;5.98;79.06;100647.71;129276;1261;114905;-68
2023/04/20 04:05:06;;;;;;;48.10;34.60;;;;;;;6.01;79.16;100643.77;129642;1262;114760;-65
2023/04/20 04:08:08;;;;;;;51.70;36.50;;;;;;;6.04;79.01;100642.45;129399;1264;114830;-68
2023/04/20 04:11:10;;;;;;;49.50;35.40;;;;;;;6.07;79.23;100640.60;129470;1281;114873;-67
2023/04/20 04:14:12;;;;;;;55.30;37.50;;;;;;;6.10;79.13;100649.40;129404;1259;114810;-65
2023/04/20 04:17:14;;;;;;;54.00;37.10;;;;;;;6.12;79.16;100654.85;129558;1259;114797;-64
2023/04/20 04:20:20;;;;;;;53.80;36.70;;;;;;;6.15;79.04;100650.67;129389;1259;116399;-69
2023/04/20 04:23:22;;;;;;;;;;;;;;;6.19;79.23;100650.76;129483;1258;114808;-69
2023/04/20 04:26:24;;;;;;;43.40;31.10;;;;;;;6.21;79.13;100650.52;129566;1262;115194;-69
2023/04/20 04:29:26;;;;;;;46.90;32.50;;;;;;;6.24;79.07;100652.94;129458;1265;114729;-67
2023/04/20 04:32:28;;;;;;;46.10;32.80;;;;;;;6.27;78.87;100652.69;129437;1281;115095;-69
2023/04/20 04:35:30;;;;;;;46.50;32.60;;;;;;;6.31;79.22;100647.08;129498;1281;114714;-69
2023/04/20 04:38:32;;;;;;;48.10;33.20;;;;;;;6.37;79.16;100646.77;129511;1260;115091;-70
2023/04/20 04:41:35;;;;;;;42.20;32.10;;;;;;;6.41;79.09;100650.89;129517;1280;114728;-67
2023/04/20 04:44:38;;;;;;;43.40;30.50;;;;;;;6.46;78.97;100651.84;129581;1261;114705;-69
2023/04/20 04:47:42;;;;;;;42.80;31.10;;;;;;;6.50;79.04;100654.55;129648;1259;115206;-69
2023/04/20 04:50:44;;;;;;;48.80;34.70;;;;;;;6.56;79.12;100651.02;129903;1259;115716;-69
2023/04/20 04:53:48;;;;;;;47.00;34.70;;;;;;;6.61;78.92;100653.41;129653;1261;114778;-64
2023/04/20 04:56:50;;;;;;;51.80;36.10;;;;;;;6.63;78.90;100659.52;129859;1259;114717;-64
2023/04/20 04:59:52;;;;;;;47.80;36.90;;;;;;;6.69;79.06;100663.28;129829;1261;114873;-66
2023/04/20 05:02:54;;;;;;;48.40;35.00;;;;;;;6.77;78.98;100668.22;129801;1259;114815;-66
2023/04/20 05:05:56;;;;;;;54.10;38.60;;;;;;;6.83;79.21;100663.25;129463;1264;114854;-66
2023/04/20 05:08:58;;;;;;;51.40;36.60;;;;;;;6.90;79.16;100666.05;129547;1259;115146;-67
2023/04/20 05:12:02;;;;;;;56.10;37.20;;;;;;;6.95;78.80;100655.27;129656;1262;114785;-67
2023/04/20 05:15:05;;;;;;;49.40;36.80;;;;;;;6.97;79.01;100660.34;129426;1261;128553;-68
2023/04/20 05:18:07;;;;;;;52.60;37.00;;;;;;;7.00;79.05;100659.56;129456;1262;114703;-70
2023/04/20 05:21:10;;;;;;;47.30;35.50;;;;;;;6.99;78.62;100664.75;129465;1261;114725;-68
2023/04/20 05:24:16;;;;;;;54.70;36.90;;;;;;;7.00;79.01;100665.78;129626;1261;114731;-67
2023/04/20 05:27:18;;;;;;;55.80;38.70;;;;;;;7.04;79.03;100670.66;129455;1281;114750;-68
2023/04/20 05:30:20;;;;;;;54.80;37.30;;;;;;;7.10;79.07;100668.69;129392;1281;114664;-67
2023/04/20 05:33:22;;;;;;;50.00;36.70;;;;;;;7.16;79.14;100674.01;129318;1262;114804;-69
2023/04/20 05:36:25;;;;;;;51.50;37.70;;;;;;;7.23;79.19;100675.62;129335;1262;129025;-68
2023/04/20 05:39:27;;;;;;;52.40;38.90;;;;;;;7.24;78.79;100678.78;129509;1258;114768;-66
2023/04/20 05:42:29;;;;;;;53.60;36.40;;;;;;;7.24;78.72;100680.19;129414;1259;114759;-71
2023/04/20 05:45:33;;;;;;;52.80;37.90;;;;;;;7.27;78.83;100680.83;129452;1262;114828;-68
2023/04/20 05:48:35;;;;;;;57.20;39.90;;;;;;;7.30;79.07;100684.80;129326;1264;114832;-66
2023/04/20 05:51:37;;;;;;;54.60;38.70;;;;;;;7.36;79.47;100686.06;129426;1281;114779;-65
2023/04/20 05:54:39;;;;;;;49.40;36.10;;;;;;;7.38;79.09;100683.50;129428;1260;114874;-68
2023/04/20 05:57:44;;;;;;;55.40;37.90;;;;;;;7.41;78.75;100685.35;129686;1263;127640;-69
2023/04/20 06:00:46;;;;;;;55.00;37.20;;;;;;;7.45;79.08;100685.80;129503;1258;114761;-68
2023/04/20 06:03:48;;;;;;;57.30;39.00;;;;;;;7.49;78.93;100694.73;129597;1262;115396;-69
2023/04/20 06:06:50;;;;;;;55.50;37.90;;;;;;;7.48;79.27;100692.79;129742;1258;114760;-67
2023/04/20 06:09:52;;;;;;;53.90;37.60;;;;;;;7.49;78.80;100693.30;129482;1261;114760;-70
2023/04/20 06:12:55;;;;;;;53.90;38.00;;;;;;;7.50;79.26;100693.45;129367;1262;115274;-72
2023/04/20 06:15:57;;;;;;;64.90;45.10;;;;;;;7.52;79.29;100699.09;129626;1259;114737;-66
2023/04/20 06:18:59;;;;;;;57.10;39.40;;;;;;;7.55;79.14;100700.95;129214;1281;128470;-69
2023/04/20 06:22:08;;;;;;;55.10;36.40;;;;;;;7.54;78.84;100702.38;129545;1281;116042;-65
2023/04/20 06:25:10;;;;;;;55.20;38.10;;;;;;;7.53;79.13;100706.85;129645;1261;114819;-68
2023/04/20 06:28:12;;;;;;;59.70;39.00;;;;;;;7.53;78.96;100704.19;130013;1281;114814;-66
2023/04/20 06:31:15;;;;;;;61.80;38.40;;;;;;;7.57;79.32;100708.69;129591;1260;114783;-68
2023/04/20 06:34:17;;;;;;;56.10;37.40;;;;;;;7.60;79.04;100709.85;129671;1259;114652;-65
2023/04/20 06:37:19;;;;;;;55.80;36.70;;;;;;;7.64;79.36;100706.88;129490;1259;128858;-68
2023/04/20 06:40:26;;;;;;;60.40;41.40;;;;;;;7.66;79.42;100708.25;129471;1261;115221;-64
2023/04/20 06:43:29;;;;;;;58.70;40.50;;;;;;;7.70;79.06;100713.27;129587;1281;114710;-70
2023/04/20 06:46:31;;;;;;;61.40;40.30;;;;;;;7.80;79.68;100714.39;129519;1261;115248;-64
2023/04/20 06:49:33;;;;;;;58.40;38.60;;;;;;;7.94;79.51;100708.27;129455;1262;114752;-64
2023/04/20 06:52:36;;;;;;;61.00;43.20;;;;;;;8.05;79.15;100711.48;129491;1262;114792;-68
2023/04/20 06:55:39;;;;;;;56.90;40.30;;;;;;;8.14;78.90;100714.40;129510;1262;128952;-65
2023/04/20 06:58:41;;;;;;;56.80;39.00;;;;;;;8.22;78.96;100714.12;129402;1262;115300;-66
2023/04/20 07:01:43;;;;;;;55.70;37.60;;;;;;;8.33;79.18;100715.52;129566;1259;114712;-65
2023/04/20 07:04:45;;;;;;;55.70;38.60;;;;;;;8.48;79.08;100709.52;129532;1261;114828;-68
2023/04/20 07:07:48;;;;;;;51.60;36.60;;;;;;;8.71;79.32;100705.92;129451;1259;114781;-66
2023/04/20 07:10:50;;;;;;;57.30;37.80;;;;;;;8.92;79.27;100707.13;129656;1259;114724;-68
2023/04/20 07:13:52;;;;;;;58.60;38.50;;;;;;;9.10;79.08;100713.42;130576;1259;114723;-66
2023/04/20 07:16:55;;;;;;;60.40;38.60;;;;;;;9.24;78.84;100711.46;131737;1258;115424;-66
2023/04/20 07:20:04;;;;;;;57.60;36.40;;;;;;;9.42;78.64;100714.01;131205;1259;114707;-69
2023/04/20 07:23:09;;;;;;;55.70;36.30;;;;;;;9.56;78.30;100715.95;129694;1260;114753;-65
2023/04/20 07:26:11;;;;;;;58.00;40.10;;;;;;;9.72;78.30;100719.13;129721;1261;115187;-67
2023/04/20 07:29:13;;;;;;;61.80;38.60;;;;;;;9.87;78.03;100722.81;129709;1258;114730;-71
2023/04/20 07:32:16;;;;;;;52.90;36.40;;;;;;;10.02;77.98;100721.30;129782;1262;115267;-68
2023/04/20 07:35:21;;;;;;;50.70;34.60;;;;;;;10.12;77.36;100725.36;129683;1273;114739;-68
2023/04/20 07:38:26;;;;;;;56.60;36.90;;;;;;;10.18;77.33;100725.12;129410;1259;115414;-65
2023/04/20 07:41:28;;;;;;;51.10;35.50;;;;;;;10.28;77.13;100729.73;129679;1262;114739;-65
2023/04/20 07:44:30;;;;;;;55.70;36.10;;;;;;;10.37;76.79;100728.65;129612;1276;114981;-64
2023/04/20 07:47:33;;;;;;;48.70;35.50;;;;;;;10.46;77.02;100733.65;129392;1281;114886;-64
2023/04/20 07:50:35;;;;;;;50.60;35.20;;;;;;;10.54;76.71;100735.98;129502;1261;114724;-64
2023/04/20 07:53:38;;;;;;;53.40;34.70;;;;;;;10.65;76.72;100738.55;129742;1261;114692;-69
2023/04/20 07:56:40;;;;;;;51.40;37.60;;;;;;;10.67;76.16;100741.02;129485;1276;114753;-65
2023/04/20 07:59:44;;;;;;;53.90;36.00;;;;;;;10.72;76.19;100736.46;129466;1259;115462;-66
2023/04/20 08:02:46;;;;;;;52.80;36.30;;;;;;;10.78;76.03;100733.53;129661;1260;115245;-69
2023/04/20 08:05:49;;;;;;;53.30;37.00;;;;;;;10.78;75.63;100735.14;129610;1262;114825;-68
2023/04/20 08:08:51;;;;;;;54.80;38.80;;;;;;;10.76;75.57;100737.38;129488;1281;114754;-69
2023/04/20 08:11:54;;;;;;;56.50;38.50;;;;;;;10.76;75.39;100738.98;129538;1259;114690;-67
2023/04/20 08:15:00;;;;;;;59.30;37.20;;;;;;;10.75;75.63;100736.16;129491;1262;127643;-69
2023/04/20 08:18:02;;;;;;;56.10;39.40;;;;;;;10.72;75.59;100731.65;129507;1275;115228;-69
2023/04/20 08:21:05;;;;;;;55.30;37.00;;;;;;;10.75;75.62;100735.27;129664;1259;114877;-70
2023/04/20 08:24:07;;;;;;;53.60;36.30;;;;;;;10.78;75.55;100731.01;129497;1274;114756;-69
2023/04/20 08:27:09;;;;;;;124.10;83.50;;;;;;;10.82;75.19;100727.47;129503;1281;114726;-70
2023/04/20 08:30:12;;;;;;;57.50;41.20;;;;;;;10.89;75.14;100730.75;129637;1259;114749;-67
2023/04/20 08:33:14;;;;;;;55.80;37.90;;;;;;;10.95;75.32;100734.95;129518;1273;115486;-70
2023/04/20 08:36:17;;;;;;;58.10;37.80;;;;;;;11.01;75.00;100729.69;129527;1277;115114;-70
2023/04/20 08:39:21;;;;;;;50.40;36.50;;;;;;;11.01;75.06;100734.16;129620;1262;115364;-69
2023/04/20 08:42:23;;;;;;;60.80;39.00;;;;;;;11.03;74.73;100737.10;129286;1267;114891;-70
2023/04/20 08:45:25;;;;;;;54.00;37.90;;;;;;;11.04;74.52;100733.63;129405;1262;115281;-69
2023/04/20 08:48:36;;;;;;;56.90;38.80;;;;;;;11.07;74.55;100732.80;129489;1259;114837;-69
2023/04/20 08:51:46;;;;;;;62.20;39.80;;;;;;;11.05;74.71;100733.59;129452;1264;129121;-70
2023/04/20 08:54:48;;;;;;;63.10;40.50;;;;;;;11.08;74.32;100733.47;129491;1262;115220;-69
2023/04/20 08:57:50;;;;;;;59.10;38.70;;;;;;;11.25;75.12;100730.22;129485;1262;114814;-72
2023/04/20 09:00:52;;;;;;;59.70;37.50;;;;;;;11.42;74.37;100726.92;129758;1259;114807;-67
2023/04/20 09:03:55;;;;;;;57.70;37.70;;;;;;;11.63;74.51;100726.69;129497;1259;115194;-68
2023/04/20 09:06:57;;;;;;;53.40;36.10;;;;;;;11.81;74.01;100724.94;129449;1261;114822;-65
2023/04/20 09:10:00;;;;;;;60.70;39.90;;;;;;;12.03;73.84;100721.40;129434;1271;114663;-65
2023/04/20 09:13:03;;;;;;;60.70;39.00;;;;;;;12.21;73.62;100726.61;129634;1264;114941;-70
2023/04/20 09:16:10;;;;;;;54.60;38.20;;;;;;;12.40;73.68;100728.20;129418;1258;114660;-69
2023/04/20 09:19:14;;;;;;;51.20;35.50;;;;;;;12.61;73.10;100728.39;129512;1259;114729;-67
2023/04/20 09:22:19;;;;;;;58.00;38.00;;;;;;;12.77;72.64;100721.13;129337;1264;115165;-70
2023/04/20 09:25:26;;;;;;;55.00;37.70;;;;;;;13.02;72.59;100725.73;129421;1261;115403;-70
2023/04/20 09:28:41;;;;;;;55.60;39.70;;;;;;;13.24;72.25;100726.70;129215;1281;128429;-70
2023/04/20 09:31:43;;;;;;;58.40;38.40;;;;;;;13.53;72.12;100727.70;129451;1274;115222;-69
2023/04/20 09:34:46;;;;;;;54.60;38.20;;;;;;;13.79;71.91;100727.13;129428;1263;114879;-68
2023/04/20 09:37:48;;;;;;;52.60;37.90;;;;;;;14.14;71.86;100728.41;129519;1275;115107;-69
2023/04/20 09:40:51;;;;;;;52.50;37.70;;;;;;;14.37;70.95;100721.13;129592;1258;114824;-68
2023/04/20 09:43:53;;;;;;;56.40;38.00;;;;;;;14.67;70.60;100716.73;129555;1262;114912;-71
2023/04/20 09:46:55;;;;;;;58.80;39.20;;;;;;;14.96;70.50;100716.77;129431;1262;114767;-71
2023/04/20 09:49:58;;;;;;;52.40;34.90;;;;;;;15.29;70.18;100714.95;129436;1262;114718;-71
2023/04/20 09:53:01;;;;;;;48.10;34.00;;;;;;;15.62;69.73;100711.05;129527;1257;115111;-71
2023/04/20 09:56:04;;;;;;;55.70;36.50;;;;;;;15.87;69.00;100711.63;129412;1260;114854;-71
2023/04/20 09:59:07;;;;;;;50.10;36.90;;;;;;;16.06;68.30;100708.44;129186;1262;114788;-70
2023/04/20 10:02:11;;;;;;;49.00;36.10;;;;;;;16.11;67.01;100711.32;129451;1263;114913;-69
2023/04/20 10:05:15;;;;;;;49.10;36.20;;;;;;;16.11;66.86;100707.57;129464;1261;127639;-71
2023/04/20 10:08:19;;;;;;;50.90;36.10;;;;;;;16.25;67.12;100703.59;129378;1261;114718;-70
2023/04/20 10:11:29;;;;;;;47.30;33.30;;;;;;;16.42;67.31;100699.70;129461;1259;115338;-71
2023/04/20 10:14:31;;;;;;;46.90;34.00;;;;;;;16.71;67.38;100695.77;129476;1264;114701;-71
2023/04/20 10:17:33;;;;;;;48.50;33.50;;;;;;;16.87;66.53;100695.73;129462;1274;114729;-66
2023/04/20 10:20:35;;;;;;;49.60;32.70;;;;;;;17.02;66.29;100692.36;129497;1262;114821;-71
2023/04/20 10:23:49;;;;;;;46.80;34.70;;;;;;;17.23;66.11;100691.67;129304;1261;128061;-71
2023/04/20 10:26:51;;;;;;;45.80;31.90;;;;;;;17.40;65.33;100690.95;129567;1259;115320;-69
2023/04/20 10:29:54;;;;;;;44.30;32.90;;;;;;;17.30;63.92;100687.55;129666;1259;114715;-70
2023/04/20 10:33:03;;;;;;;40.70;31.50;;;;;;;17.23;63.84;100683.18;129427;1261;114726;-66
2023/04/20 10:36:05;;;;;;;36.50;28.10;;;;;;;17.13;63.04;100684.56;129456;1273;114793;-68
2023/04/20 10:39:18;;;;;;;36.60;27.90;;;;;;;17.00;62.40;100683.02;129354;1259;114708;-71
2023/04/20 10:42:20;;;;;;;42.20;29.30;;;;;;;16.83;62.60;100682.34;129472;1262;116490;-69
2023/04/20 10:45:34;;;;;;;39.80;29.20;;;;;;;16.75;62.02;100682.88;129370;1281;114723;-69
2023/04/20 10:48:36;;;;;;;38.50;29.10;;;;;;;16.62;61.32;100681.10;129445;1258;114748;-70
2023/04/20 10:51:48;;;;;;;41.10;30.60;;;;;;;16.44;61.66;100681.22;129503;1261;114857;-68
2023/04/20 10:54:50;;;;;;;43.00;31.90;;;;;;;16.44;61.92;100677.45;129263;1281;128565;-71
2023/04/20 10:57:52;;;;;;;42.40;29.60;;;;;;;16.41;61.83;100677.79;129552;1261;115250;-67
2023/04/20 11:01:04;;;;;;;41.70;32.40;;;;;;;16.44;62.12;100672.23;129488;1273;115188;-69
2023/04/20 11:04:09;;;;;;;43.50;32.20;;;;;;;16.41;62.04;100665.38;129450;1259;114714;-67
2023/04/20 11:07:14;;;;;;;46.70;33.20;;;;;;;16.49;62.32;100662.44;129325;1261;114872;-70
2023/04/20 11:10:17;;;;;;;47.60;33.50;;;;;;;16.62;62.27;100659.05;129543;1261;115292;-71
2023/04/20 11:13:27;;;;;;;48.00;32.60;;;;;;;16.69;62.37;100657.69;129425;1262;114806;-70
2023/04/20 11:16:30;;;;;;;45.20;32.70;;;;;;;16.78;62.06;100653.64;129412;1281;115298;-69
2023/04/20 11:19:34;;;;;;;43.30;29.50;;;;;;;16.89;62.18;100654.49;129693;1261;114744;-71
2023/04/20 11:22:38;;;;;;;46.90;31.30;;;;;;;17.07;61.80;100656.51;129265;1264;114819;-71
2023/04/20 11:25:54;;;;;;;41.70;30.30;;;;;;;17.21;61.71;100650.64;129474;1261;114806;-70
2023/04/20 11:28:55;;;;;;;43.50;29.90;;;;;;;17.29;60.98;100653.34;129487;1262;127540;-71
2023/04/20 11:32:03;;;;;;;43.50;30.50;;;;;;;17.32;60.84;100650.73;129447;1275;115376;-70
2023/04/20 11:35:09;;;;;;;45.90;30.10;;;;;;;17.40;60.79;100645.30;129296;1261;114922;-71
2023/04/20 11:38:11;;;;;;;42.20;29.50;;;;;;;17.53;60.78;100642.55;129488;1261;114774;-69
2023/04/20 11:41:13;;;;;;;45.00;28.30;;;;;;;17.58;60.07;100644.73;129440;1275;114733;-71
2023/04/20 11:44:16;;;;;;;43.60;31.60;;;;;;;17.45;59.06;100642.26;129559;1281;114745;-70
2023/04/20 11:47:18;;;;;;;39.30;29.70;;;;;;;17.26;59.73;100632.96;129503;1259;129078;-70
2023/04/20 11:50:21;;;;;;;45.10;28.90;;;;;;;17.30;60.01;100626.33;129632;1261;114819;-70
2023/04/20 11:53:24;;;;;;;42.00;27.80;;;;;;;17.32;59.73;100629.27;129671;1261;114735;-69
2023/04/20 11:56:26;;;;;;;39.50;26.70;;;;;;;17.35;59.31;100626.03;129765;1261;114690;-71
2023/04/20 11:59:29;;;;;;;36.40;24.80;;;;;;;17.40;59.00;100622.38;129593;1277;114742;-71
2023/04/20 12:02:31;;;;;;;39.50;27.00;;;;;;;17.42;58.64;100619.52;129329;1264;116273;-68
2023/04/20 12:05:33;;;;;;;40.90;25.00;;;;;;;17.39;58.31;100617.40;129593;1264;114906;-69
2023/04/20 12:08:36;;;;;;;40.60;25.90;;;;;;;17.47;58.62;100617.16;129719;1261;115168;-66
2023/04/20 12:11:38;;;;;;;38.60;26.20;;;;;;;17.62;58.50;100612.30;129696;1261;114714;-66
2023/04/20 12:14:40;;;;;;;38.60;24.90;;;;;;;17.71;57.89;100609.77;129776;1259;114718;-67
2023/04/20 12:17:43;;;;;;;36.60;26.00;;;;;;;17.68;57.82;100609.85;129647;1261;114843;-69
2023/04/20 12:20:46;;;;;;;43.00;25.20;;;;;;;17.70;57.91;100607.71;129662;1281;115110;-70
2023/04/20 12:23:50;;;;;;;30.70;18.30;;;;;;;17.74;57.10;100604.35;129608;1259;114742;-70
2023/04/20 12:26:52;;;;;;;30.90;19.50;;;;;;;17.77;56.61;100599.45;129222;1281;128393;-69
2023/04/20 12:29:54;;;;;;;29.10;21.10;;;;;;;17.84;56.20;100596.38;129519;1281;115190;-67
2023/04/20 12:32:57;;;;;;;31.10;19.90;;;;;;;17.88;55.68;100591.92;129831;1261;114794;-69
2023/04/20 12:35:59;;;;;;;37.20;22.10;;;;;;;17.85;55.22;100595.75;129524;1281;114791;-68
2023/04/20 12:39:03;;;;;;;33.00;20.40;;;;;;;17.80;55.13;100594.33;129562;1281;114794;-70
2023/04/20 12:42:05;;;;;;;33.50;20.40;;;;;;;17.76;55.06;100595.13;129483;1272;114724;-71
2023/04/20 12:45:07;;;;;;;33.70;19.70;;;;;;;17.81;55.06;100594.24;129450;1261;114820;-71
2023/04/20 12:48:09;;;;;;;30.80;19.80;;;;;;;17.79;54.51;100585.91;129509;1258;115606;-70
2023/04/20 12:51:13;;;;;;;34.50;22.90;;;;;;;17.77;54.43;100586.42;129418;1281;115273;-68
2023/04/20 12:54:15;;;;;;;32.00;20.00;;;;;;;17.67;54.50;100585.75;129494;1277;114719;-65
2023/04/20 12:57:18;;;;;;;33.40;19.60;;;;;;;17.67;54.83;100575.81;129541;1261;114783;-69
2023/04/20 13:00:20;;;;;;;27.60;17.60;;;;;;;17.79;54.98;100576.54;129400;1277;114779;-67
2023/04/20 13:03:22;;;;;;;30.50;18.40;;;;;;;17.90;55.19;100573.53;129563;1271;114734;-67
2023/04/20 13:06:25;;;;;;;28.20;17.80;;;;;;;18.01;54.98;100570.36;129220;1266;127969;-71
2023/04/20 13:09:27;;;;;;;25.40;18.60;;;;;;;18.08;54.73;100575.45;129501;1261;115364;-70
2023/04/20 13:12:30;;;;;;;25.40;16.50;;;;;;;18.13;54.63;100565.64;129487;1261;115120;-68
2023/04/20 13:15:32;;;;;;;32.70;15.20;;;;;;;18.19;54.24;100564.47;129681;1261;115187;-69
2023/04/20 13:18:35;;;;;;;24.40;14.40;;;;;;;18.23;53.88;100559.12;129553;1281;114743;-71
2023/04/20 13:21:37;;;;;;;17.20;11.60;;;;;;;18.28;53.95;100562.75;129235;1273;325971;-71
2023/04/20 13:24:40;;;;;;;20.30;10.40;;;;;;;18.32;53.32;100557.87;129440;1281;114785;-71
2023/04/20 13:27:42;;;;;;;18.80;10.30;;;;;;;18.35;53.17;100554.03;129575;1274;115235;-67
2023/04/20 13:30:44;;;;;;;19.80;11.40;;;;;;;18.39;53.08;100552.42;129355;1266;115319;-70
2023/04/20 13:33:47;;;;;;;21.60;12.20;;;;;;;18.47;53.08;100551.27;129443;1277;114796;-70
2023/04/20 13:36:50;;;;;;;23.70;12.30;;;;;;;18.55;52.89;100559.34;129548;1261;115230;-71
2023/04/20 13:39:52;;;;;;;19.50;11.70;;;;;;;18.57;52.37;100554.84;129751;1262;114815;-69